Northeast Coast - Cape St. John and south: Past 24 Hour Conditions

 

East Point

10:00 AM AST 22 November 2014
This table is a summary of hourly weather conditions for the past 24 hours.
Date / Time
(AST)
Wind(knots) Conditions Visibility(km) Pressure(kPa) Air tempC) Relative humidity(%) Dew pointC) Wind Chill
22 November 2014
10:00 WSW 11 gust 16 N/A N/A 101.9 -5 84 -7 -12
9:00 WSW 11 gust 16 N/A N/A 101.8 -6 91 -7 -13
8:00 WSW 12 gust 18 N/A N/A 101.8 -6 85 -8 -13
7:00 W 19 gust 29 N/A N/A 101.7 -4 77 -7 -12
6:00 WNW 24 gust 34 N/A N/A 101.6 -3 76 -7 -12
5:00 WNW 23 N/A N/A 101.5 -3 70 -7 -11
4:00 WNW 21 gust 34 N/A N/A 101.5 -3 88 -5 -12
3:00 WNW 30 gust 38 N/A N/A 101.4 -3 77 -6 -13
2:00 NW 21 gust 34 N/A N/A 101.2 -2 77 -5 -10
1:00 NW 26 gust 34 N/A N/A 101.2 -2 66 -7 -11
0:00 NW 28 gust 35 N/A N/A 101.1 -2 62 -8 -11
21 November 2014
23:00 NW 27 gust 37 N/A N/A 101.1 -2 67 -7 -11
22:00 NW 26 gust 36 N/A N/A 101.0 -3 78 -6 -12
21:00 NNW 28 gust 39 N/A N/A 100.9 -2 80 -5 -11
20:00 NW 31 gust 38 N/A N/A 100.9 -1 78 -5 -11
19:00 NW 29 gust 37 N/A N/A 100.8 -1 73 -5 -9
18:00 WNW 24 gust 34 N/A N/A 100.7 -1 69 -6 -9
17:00 WSW 10 N/A N/A 100.7 -3 87 -5 -9
16:00 WSW 12 gust 18 N/A N/A 100.6 -2 72 -6 -8
15:00 W 15 gust 22 N/A N/A 100.5 -1 64 -7 -7
14:00 WNW 16 gust 22 N/A N/A 100.5 0 60 -7 -7
13:00 W 13 gust 18 N/A N/A 100.5 1 58 -7 *
12:00 WNW 17 N/A N/A 100.5 -1 63 -7 -7
11:00 W 15 gust 23 N/A N/A 100.6 0 68 -5 -7
10:00 W 19 gust 24 N/A N/A 100.6 -1 72 -5 -8
 
Map of Atlantic - Newfoundland marine weather areas Southwestern Grand Banks - 44138 Banquereau - 44139 Tail of the Bank - 44140 Nickerson Bank - 44251 Northeast Burgeo Bank - 44255 Blanc-Sablon Airport Cap Whittle Chevery Natashquan Airport Heath Point Miscou Island Grand Étang Ingonish Beach North Mountain St.Paul Island J.A. Douglas McCurdy Sydney Airport Charlottetown Airport East Point North Cape Argentia Bonavista Burgeo Cape Race Corner Brook Daniel's Harbour Englee Ferolle Point La Scie Port aux Basques Rocky Harbour Sagona Island St. Anthony Airport St. John's Int'l Airport St. Lawrence Stephenville Airport Twillingate Winterland Wreckhouse Cartwright Airport Mary's Harbour Grates Cove Pool's Island Marticot Island Long Pond Îles de la Madeleine Airport
Legend: buoyBuoy land stationLand Station